Time;durP1;ratioP1;P1;durP2;ratioP2;P2;SDS_P1;SDS_P2;PMS_P1;PMS_P2;Temp;Humidity;BMP_temperature;BMP_pressure;BME280_temperature;BME280_humidity;BME280_pressure;Samples;Min_cycle;Max_cycle;Signal;HPM_P1;HPM_P2
2022/08/07 00:01:29;;;;;;;0.83;0.83;;;16.50;1.00;;;;;;5019485;28;20447;-78
2022/08/07 00:04:23;;;;;;;1.00;0.80;;;16.40;1.00;;;;;;5026172;28;20534;-78
2022/08/07 00:06:53;;;;;;;2.30;0.70;;;16.40;1.00;;;;;;5016044;28;20434;-78
2022/08/07 00:09:36;;;;;;;1.17;0.60;;;16.40;1.00;;;;;;5029299;28;20900;-78
2022/08/07 00:12:02;;;;;;;6.57;0.83;;;16.30;1.00;;;;;;5015970;28;20427;-79
2022/08/07 00:14:29;;;;;;;1.17;0.83;;;16.30;1.00;;;;;;5028519;28;20463;-79
2022/08/07 00:16:56;;;;;;;1.10;0.80;;;16.30;1.00;;;;;;5026112;28;20398;-74
2022/08/07 00:19:21;;;;;;;2.60;0.77;;;16.40;1.00;;;;;;5022202;28;20385;-74
2022/08/07 00:21:48;;;;;;;0.97;0.80;;;16.30;1.00;;;;;;5025143;28;20383;-74
2022/08/07 00:24:13;;;;;;;3.00;1.20;;;16.20;1.00;;;;;;5016497;28;20189;-74
2022/08/07 00:26:39;;;;;;;1.03;0.70;;;16.20;1.00;;;;;;5027891;28;20452;-74
2022/08/07 00:29:05;;;;;;;1.53;0.70;;;16.20;1.00;;;;;;5027189;28;20263;-74
2022/08/07 00:31:41;;;;;;;0.73;0.73;;;16.20;1.00;;;;;;5022879;28;20181;-78
2022/08/07 00:34:11;;;;;;;1.10;0.80;;;16.20;1.00;;;;;;5034288;28;20738;-78
2022/08/07 00:36:43;;;;;;;0.80;0.63;;;16.20;1.00;;;;;;5015595;28;20427;-79
2022/08/07 00:39:24;;;;;;;0.70;0.70;;;16.10;1.00;;;;;;5028777;28;20475;-79
2022/08/07 00:41:55;;;;;;;2.07;1.23;;;16.10;1.00;;;;;;5023885;28;20605;-79
2022/08/07 00:44:24;;;;;;;2.73;0.97;;;16.10;1.00;;;;;;5033424;28;20624;-79
2022/08/07 00:46:54;;;;;;;0.77;0.77;;;16.10;1.00;;;;;;5035465;28;20505;-74
2022/08/07 00:49:20;;;;;;;1.53;0.73;;;16.00;1.00;;;;;;5030506;28;20550;-74
2022/08/07 00:51:48;;;;;;;4.03;0.70;;;16.00;1.00;;;;;;5015074;28;20824;-74
2022/08/07 00:54:14;;;;;;;0.70;0.70;;;15.90;1.00;;;;;;5026176;28;20324;-74
2022/08/07 00:56:40;;;;;;;2.20;0.60;;;16.00;1.00;;;;;;5024707;28;20407;-74
2022/08/07 00:59:12;;;;;;;1.10;0.70;;;15.90;1.00;;;;;;5018549;28;20397;-74
2022/08/07 01:01:54;;;;;;;1.47;0.87;;;15.90;1.00;;;;;;5027677;28;20541;-78
2022/08/07 01:04:53;;;;;;;4.87;0.90;;;15.90;1.00;;;;;;5033237;28;20444;-79
2022/08/07 01:07:47;;;;;;;0.80;0.67;;;15.90;1.00;;;;;;5032950;28;20401;-79
2022/08/07 01:10:41;;;;;;;0.70;0.60;;;15.90;1.00;;;;;;5033797;28;20510;-79
2022/08/07 01:13:12;;;;;;;1.43;0.80;;;15.90;1.00;;;;;;5016780;28;20420;-78
2022/08/07 01:15:38;;;;;;;1.13;0.70;;;15.80;1.00;;;;;;5021771;28;20429;-79
2022/08/07 01:18:06;;;;;;;0.80;0.70;;;15.80;1.00;;;;;;5021427;28;20416;-73
2022/08/07 01:20:42;;;;;;;4.10;0.80;;;15.80;1.00;;;;;;5015911;28;20739;-74
2022/08/07 01:23:07;;;;;;;1.37;0.90;;;15.80;1.00;;;;;;5017989;28;20398;-74
2022/08/07 01:25:48;;;;;;;0.80;0.70;;;15.80;1.00;;;;;;5022797;28;20427;-74
2022/08/07 01:28:14;;;;;;;0.70;0.70;;;15.70;1.00;;;;;;5025452;28;20741;-74
2022/08/07 01:30:40;;;;;;;0.70;0.70;;;15.70;1.00;;;;;;5024157;28;20454;-74
2022/08/07 01:33:12;;;;;;;2.87;0.90;;;15.70;1.00;;;;;;5018601;28;20538;-79
2022/08/07 01:35:37;;;;;;;0.90;0.80;;;15.60;1.00;;;;;;5034060;28;20530;-79
2022/08/07 01:38:23;;;;;;;0.80;0.80;;;15.60;1.00;;;;;;5033793;28;20437;-79
2022/08/07 01:41:35;;;;;;;8.13;0.90;;;15.50;1.00;;;;;;5027945;28;20423;-79
2022/08/07 01:44:06;;;;;;;1.63;0.80;;;15.50;1.00;;;;;;5023095;28;20385;-79
2022/08/07 01:46:36;;;;;;;3.13;0.80;;;15.40;1.00;;;;;;5013769;28;20515;-79
2022/08/07 01:49:02;;;;;;;2.50;0.80;;;15.40;1.00;;;;;;5015171;28;20408;-74
2022/08/07 01:51:29;;;;;;;2.67;0.93;;;15.30;1.00;;;;;;5027151;28;20919;-74
2022/08/07 01:54:01;;;;;;;2.67;0.70;;;15.30;1.00;;;;;;5014650;28;20597;-74
2022/08/07 01:56:46;;;;;;;0.70;0.70;;;15.30;1.00;;;;;;5032783;28;20394;-74
2022/08/07 01:59:42;;;;;;;1.00;0.70;;;15.20;1.00;;;;;;5030046;28;20481;-74
2022/08/07 02:02:32;;;;;;;1.10;0.80;;;15.10;1.00;;;;;;5014473;28;20904;-75
2022/08/07 02:05:24;;;;;;;3.03;1.27;;;15.10;1.00;;;;;;5024295;28;20389;-74
2022/08/07 02:07:52;;;;;;;5.80;1.03;;;15.10;1.00;;;;;;5032077;28;20401;-74
2022/08/07 02:10:26;;;;;;;1.00;0.73;;;15.00;1.00;;;;;;5031416;28;20389;-74
2022/08/07 02:12:57;;;;;;;0.80;0.73;;;15.00;1.00;;;;;;5019656;28;20377;-74
2022/08/07 02:15:25;;;;;;;0.80;0.80;;;15.00;1.00;;;;;;5021925;28;20558;-74
2022/08/07 02:18:01;;;;;;;0.90;0.70;;;15.00;1.00;;;;;;5025322;28;20432;-79
2022/08/07 02:20:31;;;;;;;1.60;0.60;;;14.90;1.00;;;;;;5015977;28;20367;-79
2022/08/07 02:23:13;;;;;;;1.20;0.63;;;14.90;1.00;;;;;;5028825;28;20389;-79
2022/08/07 02:25:49;;;;;;;0.70;0.70;;;14.90;1.00;;;;;;5019389;28;20434;-79
2022/08/07 02:28:19;;;;;;;2.60;0.90;;;14.80;1.00;;;;;;5026013;28;20420;-79
2022/08/07 02:30:50;;;;;;;1.10;0.60;;;14.90;1.00;;;;;;5024273;28;20953;-79
2022/08/07 02:33:20;;;;;;;1.70;0.80;;;14.80;1.00;;;;;;5018826;28;20397;-74
2022/08/07 02:35:48;;;;;;;1.13;0.73;;;14.80;1.00;;;;;;5016676;28;20455;-74
2022/08/07 02:38:21;;;;;;;0.67;0.67;;;14.80;1.00;;;;;;5029624;28;20473;-74
2022/08/07 02:40:47;;;;;;;2.30;0.70;;;14.90;1.00;;;;;;5029142;28;20457;-74
2022/08/07 02:43:19;;;;;;;3.47;0.90;;;14.80;1.00;;;;;;5020525;28;20382;-74
2022/08/07 02:45:48;;;;;;;0.80;0.80;;;14.80;1.00;;;;;;5020685;28;20398;-74
2022/08/07 02:48:47;;;;;;;1.00;0.90;;;14.80;1.00;;;;;;5022855;28;20387;-79
2022/08/07 02:51:22;;;;;;;0.83;0.83;;;14.80;1.00;;;;;;5013526;28;20866;-79
2022/08/07 02:53:56;;;;;;;0.80;0.70;;;14.80;1.00;;;;;;5016572;28;20524;-79
2022/08/07 02:56:28;;;;;;;0.80;0.80;;;14.70;1.00;;;;;;5027379;28;20398;-79
2022/08/07 02:58:54;;;;;;;0.70;0.70;;;14.80;1.00;;;;;;5019121;28;20416;-79
2022/08/07 03:01:23;;;;;;;1.17;0.77;;;14.70;1.00;;;;;;5036879;28;20362;-79
2022/08/07 03:03:55;;;;;;;1.47;0.73;;;14.80;1.00;;;;;;5024107;28;20402;-74
2022/08/07 03:06:22;;;;;;;3.43;0.80;;;14.70;1.00;;;;;;5033732;28;20389;-74
2022/08/07 03:08:48;;;;;;;0.90;0.70;;;14.80;1.00;;;;;;5029488;28;20403;-74
2022/08/07 03:11:15;;;;;;;0.73;0.70;;;14.70;1.00;;;;;;5033212;28;20405;-74
2022/08/07 03:13:42;;;;;;;0.80;0.70;;;14.70;1.00;;;;;;5025180;28;20792;-74
2022/08/07 03:16:13;;;;;;;0.87;0.70;;;14.70;1.00;;;;;;5030628;28;20509;-74
2022/08/07 03:18:39;;;;;;;0.70;0.70;;;14.80;1.00;;;;;;5017515;28;20793;-74
2022/08/07 03:21:05;;;;;;;0.70;0.70;;;14.70;1.00;;;;;;5016932;28;20447;-74
2022/08/07 03:23:37;;;;;;;0.70;0.70;;;14.70;1.00;;;;;;5017441;28;20184;-74
2022/08/07 03:26:08;;;;;;;0.70;0.70;;;14.60;1.00;;;;;;5019908;28;20392;-74
2022/08/07 03:28:35;;;;;;;0.70;0.63;;;14.70;1.00;;;;;;5020392;28;20493;-73
2022/08/07 03:31:19;;;;;;;0.70;0.70;;;14.70;1.00;;;;;;5025192;28;20394;-74
2022/08/07 03:34:16;;;;;;;3.13;0.80;;;14.70;1.00;;;;;;5017202;28;20517;-79
2022/08/07 03:36:43;;;;;;;2.20;0.87;;;14.60;1.00;;;;;;5005056;28;20428;-79
2022/08/07 03:39:12;;;;;;;2.63;0.60;;;14.60;1.00;;;;;;5017497;28;20462;-79
2022/08/07 03:41:54;;;;;;;1.63;0.80;;;14.60;1.00;;;;;;5031921;28;20438;-79
2022/08/07 03:44:21;;;;;;;1.00;0.77;;;14.60;1.00;;;;;;5014422;28;20826;-79
2022/08/07 03:46:48;;;;;;;2.30;0.70;;;14.60;1.00;;;;;;5014925;28;20730;-79
2022/08/07 03:49:14;;;;;;;0.70;0.70;;;14.60;1.00;;;;;;5025474;28;20456;-74
2022/08/07 03:51:42;;;;;;;0.70;0.70;;;14.60;1.00;;;;;;5027503;28;20951;-74
2022/08/07 03:54:12;;;;;;;0.80;0.60;;;14.60;1.00;;;;;;5020852;28;20497;-74
2022/08/07 03:56:39;;;;;;;0.77;0.63;;;14.60;1.00;;;;;;5031264;28;20402;-74
2022/08/07 03:59:06;;;;;;;1.13;0.70;;;14.60;1.00;;;;;;5014600;28;20431;-74
2022/08/07 04:01:33;;;;;;;0.80;0.70;;;14.60;1.00;;;;;;5023690;28;20462;-74
2022/08/07 04:03:59;;;;;;;3.13;0.80;;;14.60;1.00;;;;;;5009468;28;20443;-74
2022/08/07 04:06:25;;;;;;;2.10;0.90;;;14.50;1.00;;;;;;5015320;28;20418;-74
2022/08/07 04:08:51;;;;;;;1.00;0.90;;;14.50;1.00;;;;;;5013057;28;20451;-74
2022/08/07 04:11:17;;;;;;;0.73;0.73;;;14.50;1.00;;;;;;5023898;28;20459;-74
2022/08/07 04:13:49;;;;;;;0.83;0.83;;;14.50;1.00;;;;;;5029139;28;22057;-83
2022/08/07 04:16:18;;;;;;;1.90;0.80;;;14.50;1.00;;;;;;5018656;28;20485;-81
2022/08/07 04:19:11;;;;;;;0.70;0.70;;;14.50;1.00;;;;;;5014741;28;20428;-81
2022/08/07 04:22:17;;;;;;;3.53;0.70;;;14.50;1.00;;;;;;5019605;28;20412;-81
2022/08/07 04:25:18;;;;;;;1.67;0.70;;;14.50;1.00;;;;;;5025492;28;20409;-82
2022/08/07 04:27:48;;;;;;;1.20;0.70;;;14.60;1.00;;;;;;5023210;28;20395;-81
2022/08/07 04:30:18;;;;;;;4.50;0.90;;;14.60;1.00;;;;;;5017091;28;20522;-81
2022/08/07 04:32:48;;;;;;;0.60;0.60;;;14.60;1.00;;;;;;5032022;28;20412;-81
2022/08/07 04:35:24;;;;;;;0.77;0.77;;;14.60;1.00;;;;;;5028961;28;20434;-81
2022/08/07 04:37:50;;;;;;;0.77;0.77;;;14.70;1.00;;;;;;5031639;28;20457;-81
2022/08/07 04:40:38;;;;;;;5.63;0.90;;;14.70;1.00;;;;;;5025217;28;20417;-81
2022/08/07 04:43:29;;;;;;;1.40;1.13;;;14.70;1.00;;;;;;5022180;28;20180;-81
2022/08/07 04:46:22;;;;;;;0.80;0.73;;;14.70;1.00;;;;;;5034073;28;20914;-81
2022/08/07 04:48:50;;;;;;;1.53;0.80;;;14.70;1.00;;;;;;5029492;28;20405;-78
2022/08/07 04:51:53;;;;;;;1.17;0.73;;;14.70;1.00;;;;;;5030963;28;20416;-78
2022/08/07 04:54:32;;;;;;;1.90;0.80;;;14.70;1.00;;;;;;5021285;28;20462;-78
2022/08/07 04:57:25;;;;;;;1.47;0.70;;;14.80;1.00;;;;;;5026398;28;20382;-78
2022/08/07 05:00:18;;;;;;;0.93;0.80;;;14.80;1.00;;;;;;5021557;28;20422;-77
2022/08/07 05:03:01;;;;;;;3.60;0.80;;;14.80;1.00;;;;;;5030444;28;20427;-78
2022/08/07 05:05:41;;;;;;;2.00;0.80;;;14.90;1.00;;;;;;5026629;28;20493;-78
2022/08/07 05:08:35;;;;;;;1.77;0.70;;;14.90;1.00;;;;;;5031932;28;20442;-78
2022/08/07 05:11:29;;;;;;;1.33;1.07;;;14.90;1.00;;;;;;5019441;28;20424;-78
2022/08/07 05:14:18;;;;;;;0.83;0.70;;;15.00;1.00;;;;;;5032579;28;20455;-78
2022/08/07 05:16:48;;;;;;;0.97;0.60;;;15.00;1.00;;;;;;5014925;28;20480;-78
2022/08/07 05:19:40;;;;;;;0.70;0.70;;;15.10;1.00;;;;;;5017324;28;20781;-77
2022/08/07 05:22:08;;;;;;;0.93;0.90;;;15.10;1.00;;;;;;5025445;28;20421;-78
2022/08/07 05:24:37;;;;;;;1.13;0.73;;;15.20;1.00;;;;;;5033464;28;20430;-78
2022/08/07 05:27:14;;;;;;;0.83;0.70;;;15.30;1.00;;;;;;5022685;28;20778;-78
2022/08/07 05:29:49;;;;;;;10.27;1.20;;;15.30;1.00;;;;;;5026288;28;20505;-77
2022/08/07 05:32:19;;;;;;;1.17;0.83;;;15.40;1.00;;;;;;5033817;28;20385;-78
2022/08/07 05:34:48;;;;;;;2.70;0.83;;;15.50;1.00;;;;;;5033097;28;20438;-78
2022/08/07 05:37:19;;;;;;;1.80;0.70;;;15.50;1.00;;;;;;5014691;28;20527;-78
2022/08/07 05:39:48;;;;;;;1.00;0.80;;;15.60;1.00;;;;;;5014989;28;20403;-78
2022/08/07 05:42:24;;;;;;;0.60;0.60;;;15.70;1.00;;;;;;5014682;28;20920;-77
2022/08/07 05:44:54;;;;;;;0.90;0.67;;;15.80;1.00;;;;;;5029441;28;20423;-77
2022/08/07 05:47:22;;;;;;;0.90;0.70;;;15.80;1.00;;;;;;5024014;28;20402;-78
2022/08/07 05:49:49;;;;;;;3.60;0.80;;;15.90;1.00;;;;;;5030429;28;20401;-81
2022/08/07 05:52:18;;;;;;;0.80;0.80;;;16.00;1.00;;;;;;5018721;28;20433;-81
2022/08/07 05:54:44;;;;;;;3.47;1.00;;;16.10;1.00;;;;;;5018090;28;20467;-81
2022/08/07 05:57:19;;;;;;;1.33;0.77;;;16.20;1.00;;;;;;5025376;28;20957;-81
2022/08/07 05:59:49;;;;;;;1.53;0.70;;;16.30;1.00;;;;;;5027888;28;20765;-82
2022/08/07 06:02:36;;;;;;;0.73;0.70;;;16.40;1.00;;;;;;5014196;28;20375;-81
2022/08/07 06:05:20;;;;;;;0.80;0.80;;;16.40;1.00;;;;;;5027591;28;20910;-80
2022/08/07 06:07:48;;;;;;;0.70;0.70;;;16.60;1.00;;;;;;5015028;28;20415;-80
2022/08/07 06:10:30;;;;;;;1.07;0.83;;;16.70;1.00;;;;;;5014387;28;20824;-81
2022/08/07 06:13:00;;;;;;;1.00;1.00;;;16.70;1.00;;;;;;5019410;28;20430;-81
2022/08/07 06:15:33;;;;;;;0.60;0.60;;;16.80;1.00;;;;;;5031465;28;20463;-81
2022/08/07 06:18:01;;;;;;;1.20;0.80;;;16.80;1.00;;;;;;5023450;28;20428;-81
2022/08/07 06:20:28;;;;;;;0.80;0.80;;;17.00;1.00;;;;;;5022612;28;20413;-81
2022/08/07 06:23:47;;;;;;;2.93;0.80;;;17.10;1.00;;;;;;5013626;28;20948;-80
2022/08/07 06:26:18;;;;;;;5.90;0.90;;;17.20;1.00;;;;;;5026272;28;20481;-81
2022/08/07 06:28:50;;;;;;;0.70;0.70;;;17.40;1.00;;;;;;5021556;28;20566;-81
2022/08/07 06:31:18;;;;;;;2.07;0.90;;;17.50;1.00;;;;;;5020022;28;20485;-80
2022/08/07 06:34:29;;;;;;;6.77;1.00;;;17.70;1.00;;;;;;5036379;28;20428;-81
2022/08/07 06:37:00;;;;;;;0.70;0.70;;;17.80;1.00;;;;;;5017962;28;20430;-77
2022/08/07 06:39:47;;;;;;;1.17;0.83;;;17.90;1.00;;;;;;5015388;28;20441;-77
2022/08/07 06:42:24;;;;;;;2.23;0.80;;;18.00;1.00;;;;;;5036606;28;20417;-77
2022/08/07 06:44:51;;;;;;;0.90;0.90;;;18.20;1.00;;;;;;5018814;28;20424;-77
2022/08/07 06:47:18;;;;;;;1.13;0.83;;;18.30;1.00;;;;;;5021310;28;20423;-77
2022/08/07 06:49:48;;;;;;;2.70;0.70;;;18.50;1.00;;;;;;5035919;28;20420;-77
2022/08/07 06:52:15;;;;;;;0.73;0.70;;;18.50;1.00;;;;;;5019402;28;20476;-77
2022/08/07 06:54:43;;;;;;;4.00;0.60;;;18.60;1.00;;;;;;5024277;28;20551;-77
2022/08/07 06:57:12;;;;;;;0.77;0.70;;;18.60;1.00;;;;;;5025978;28;20402;-77
2022/08/07 06:59:42;;;;;;;0.90;0.70;;;18.70;1.00;;;;;;5030270;28;20963;-77
2022/08/07 07:02:17;;;;;;;1.73;0.80;;;18.70;1.00;;;;;;5019041;28;20399;-77
2022/08/07 07:04:54;;;;;;;1.00;0.87;;;18.90;1.00;;;;;;5031511;28;20461;-77
2022/08/07 07:07:36;;;;;;;0.80;0.60;;;19.00;1.00;;;;;;5026544;28;20498;-77
2022/08/07 07:10:02;;;;;;;1.03;0.80;;;19.10;1.00;;;;;;5032773;28;20441;-77
2022/08/07 07:12:43;;;;;;;2.10;0.77;;;19.20;1.00;;;;;;5017293;28;20415;-77
2022/08/07 07:15:26;;;;;;;3.27;0.70;;;19.30;1.00;;;;;;5023805;28;20488;-77
2022/08/07 07:18:17;;;;;;;3.17;0.93;;;19.40;1.00;;;;;;5030760;28;20415;-77
2022/08/07 07:21:26;;;;;;;4.23;0.60;;;19.50;1.00;;;;;;5027860;28;20385;-76
2022/08/07 07:23:53;;;;;;;1.50;0.83;;;19.70;1.00;;;;;;5016234;28;20916;-77
2022/08/07 07:26:21;;;;;;;0.93;0.70;;;19.90;1.00;;;;;;5030500;28;20420;-77
2022/08/07 07:28:56;;;;;;;0.80;0.70;;;19.90;1.00;;;;;;5028371;28;20944;-77
2022/08/07 07:31:51;;;;;;;2.23;0.80;;;19.90;1.00;;;;;;5036461;28;20407;-77
2022/08/07 07:34:23;;;;;;;2.00;0.83;;;20.00;1.00;;;;;;5023656;28;20561;-77
2022/08/07 07:36:50;;;;;;;0.60;0.60;;;20.10;1.00;;;;;;5035959;28;20462;-77
2022/08/07 07:39:18;;;;;;;0.80;0.70;;;20.30;1.00;;;;;;5028223;28;20424;-77
2022/08/07 07:41:49;;;;;;;4.73;0.70;;;20.40;1.00;;;;;;5030708;28;20413;-77
2022/08/07 07:44:19;;;;;;;0.83;0.80;;;20.50;1.00;;;;;;5035270;28;20419;-77
2022/08/07 07:46:50;;;;;;;0.60;0.60;;;20.60;1.00;;;;;;5023208;28;20404;-77
2022/08/07 07:49:37;;;;;;;0.83;0.80;;;20.80;1.00;;;;;;5034442;28;20448;-77
2022/08/07 07:52:24;;;;;;;1.20;1.03;;;20.90;1.00;;;;;;5035156;28;20427;-77
2022/08/07 07:54:50;;;;;;;0.70;0.70;;;21.00;1.00;;;;;;5028476;28;20590;-77
2022/08/07 07:57:21;;;;;;;0.70;0.70;;;21.10;1.00;;;;;;5027782;28;20408;-77
2022/08/07 07:59:49;;;;;;;12.70;0.80;;;21.20;1.00;;;;;;5029632;28;20413;-77
2022/08/07 08:02:19;;;;;;;4.30;0.63;;;21.30;1.00;;;;;;5026136;28;20423;-77
2022/08/07 08:04:45;;;;;;;1.13;0.80;;;21.50;1.00;;;;;;5034376;28;20421;-77
2022/08/07 08:07:18;;;;;;;1.53;0.60;;;21.50;1.00;;;;;;5027252;28;20904;-79
2022/08/07 08:09:49;;;;;;;0.70;0.70;;;21.60;1.00;;;;;;5029619;28;20918;-77
2022/08/07 08:12:16;;;;;;;8.87;1.10;;;21.70;1.00;;;;;;5027628;28;20425;-75
2022/08/07 08:14:48;;;;;;;1.10;0.80;;;21.70;1.00;;;;;;5018087;28;20898;-75
2022/08/07 08:17:15;;;;;;;0.70;0.60;;;21.80;1.00;;;;;;5019641;28;20404;-76
2022/08/07 08:19:41;;;;;;;1.93;0.70;;;21.90;1.00;;;;;;5016431;28;20406;-75
2022/08/07 08:27:47;;;;;;;0.70;0.70;;;22.20;1.00;;;;;;5019418;28;20767;-76
2022/08/07 08:30:13;;;;;;;6.17;0.73;;;22.30;1.00;;;;;;5020555;28;20512;-77
2022/08/07 08:33:00;;;;;;;0.60;0.50;;;22.40;1.00;;;;;;5034197;28;20411;-77
2022/08/07 08:35:37;;;;;;;11.07;0.80;;;22.60;1.00;;;;;;5022585;28;20812;-77
2022/08/07 08:38:22;;;;;;;2.20;0.60;;;22.70;1.00;;;;;;5022042;28;20445;-77
2022/08/07 08:40:56;;;;;;;3.13;0.60;;;22.80;1.00;;;;;;5023798;28;20402;-77
2022/08/07 08:43:38;;;;;;;1.63;0.67;;;22.90;1.00;;;;;;5034379;28;20407;-77
2022/08/07 08:46:47;;;;;;;0.70;0.60;;;23.00;1.00;;;;;;5035106;28;20476;-77
2022/08/07 08:49:30;;;;;;;1.30;0.70;;;23.20;1.00;;;;;;5026823;28;20437;-78
2022/08/07 08:52:32;;;;;;;1.73;0.70;;;23.30;1.00;;;;;;5025815;28;20463;-78
2022/08/07 08:55:28;;;;;;;3.03;0.80;;;23.50;1.00;;;;;;5024736;28;20472;-78
2022/08/07 08:58:15;;;;;;;0.83;0.80;;;23.70;1.00;;;;;;5045695;28;20781;-78
2022/08/07 09:00:46;;;;;;;1.27;0.80;;;23.70;1.00;;;;;;5032564;28;20426;-77
2022/08/07 09:03:51;;;;;;;0.93;0.80;;;23.80;1.00;;;;;;5032979;28;20413;-77
2022/08/07 09:06:31;;;;;;;2.40;0.80;;;23.80;1.00;;;;;;4974319;28;20425;-81
2022/08/07 09:09:29;;;;;;;1.70;0.77;;;24.00;1.00;;;;;;4973270;28;20450;-80
2022/08/07 09:12:17;;;;;;;1.87;0.60;;;24.10;1.00;;;;;;4921909;29;20441;-81
2022/08/07 09:14:48;;;;;;;1.53;0.77;;;24.20;1.00;;;;;;4916475;29;20465;-80
2022/08/07 09:17:43;;;;;;;1.60;0.90;;;24.30;1.00;;;;;;4899409;29;20486;-80
2022/08/07 09:20:46;;;;;;;0.70;0.70;;;24.40;1.00;;;;;;4917102;29;20433;-81
2022/08/07 09:23:47;;;;;;;0.70;0.70;;;24.50;1.00;;;;;;4916322;29;20462;-79
2022/08/07 09:26:37;;;;;;;0.90;0.80;;;24.60;1.00;;;;;;4916256;29;20925;-79
2022/08/07 09:29:38;;;;;;;0.80;0.80;;;24.80;1.00;;;;;;4915777;29;20804;-78
2022/08/07 09:32:46;;;;;;;0.70;0.70;;;25.00;1.00;;;;;;4878434;29;20472;-79
2022/08/07 09:35:35;;;;;;;12.73;1.43;;;25.10;1.00;;;;;;4895320;29;20478;-79
2022/08/07 09:38:06;;;;;;;0.83;0.80;;;25.10;1.00;;;;;;4897379;29;20469;-78
2022/08/07 09:40:48;;;;;;;1.10;0.70;;;25.20;1.00;;;;;;4896744;29;20808;-79
2022/08/07 09:43:41;;;;;;;1.37;0.83;;;25.30;1.00;;;;;;4896031;29;20427;-79
2022/08/07 09:46:47;;;;;;;1.53;1.10;;;25.40;1.00;;;;;;4915027;29;20539;-79
2022/08/07 09:49:49;;;;;;;0.80;0.73;;;25.50;1.00;;;;;;4955621;28;20435;-78
2022/08/07 09:53:02;;;;;;;1.50;0.80;;;25.50;1.00;;;;;;4954220;29;20922;-82
2022/08/07 09:55:36;;;;;;;5.00;1.30;;;25.60;1.00;;;;;;4967202;28;20829;-81
2022/08/07 09:58:39;;;;;;;0.80;0.70;;;25.70;1.00;;;;;;4963793;28;20440;-81
2022/08/07 10:01:27;;;;;;;0.83;0.80;;;25.80;1.00;;;;;;4956436;28;20416;-79
2022/08/07 10:04:23;;;;;;;4.77;1.00;;;26.00;1.00;;;;;;4960715;28;20421;-80
2022/08/07 10:07:09;;;;;;;1.07;0.90;;;26.10;1.00;;;;;;5002015;28;20463;-81
2022/08/07 10:10:01;;;;;;;0.80;0.80;;;26.20;1.00;;;;;;5020266;28;20992;-80
2022/08/07 10:12:47;;;;;;;1.70;0.87;;;26.30;1.00;;;;;;5035798;28;20406;-80
2022/08/07 10:15:54;;;;;;;1.50;0.70;;;26.50;1.00;;;;;;5025991;28;20480;-80
2022/08/07 10:18:24;;;;;;;0.83;0.83;;;26.50;1.00;;;;;;5024980;28;20405;-80
2022/08/07 10:21:33;;;;;;;2.03;0.80;;;26.50;1.00;;;;;;5027333;28;20517;-80
2022/08/07 10:24:20;;;;;;;7.80;0.90;;;26.40;1.00;;;;;;5045849;28;20435;-80
2022/08/07 10:27:13;;;;;;;1.33;0.80;;;26.50;1.00;;;;;;5050962;28;20425;-79
2022/08/07 10:30:00;;;;;;;2.10;0.80;;;26.50;1.00;;;;;;5050877;28;20434;-79
2022/08/07 10:35:54;;;;;;;1.57;0.77;;;26.70;1.00;;;;;;5038805;28;20494;-80
2022/08/07 10:38:35;;;;;;;2.60;0.90;;;26.90;1.00;;;;;;5051474;28;20456;-78
2022/08/07 10:41:10;;;;;;;1.33;0.70;;;27.00;1.00;;;;;;5050733;28;20424;-79
2022/08/07 10:44:16;;;;;;;7.20;1.00;;;27.10;1.00;;;;;;5051054;28;20436;-79
2022/08/07 10:47:18;;;;;;;0.80;0.73;;;27.20;1.00;;;;;;4991492;28;20424;-80
2022/08/07 10:49:54;;;;;;;2.37;0.80;;;27.30;1.00;;;;;;4991536;28;20552;-81
2022/08/07 10:52:32;;;;;;;1.07;0.70;;;27.50;1.00;;;;;;4991863;28;20487;-81
2022/08/07 10:55:24;;;;;;;2.70;0.80;;;27.60;1.00;;;;;;4991609;28;20876;-83
2022/08/07 10:58:16;;;;;;;0.70;0.70;;;27.60;1.00;;;;;;4991711;28;20430;-82
2022/08/07 11:00:56;;;;;;;4.50;0.80;;;27.60;1.00;;;;;;4991241;28;20429;-83
2022/08/07 11:03:56;;;;;;;0.60;0.60;;;27.70;1.00;;;;;;4969249;28;20471;-83
2022/08/07 11:06:46;;;;;;;1.20;0.80;;;27.80;1.00;;;;;;4984389;28;20440;-83
2022/08/07 11:09:26;;;;;;;1.57;0.83;;;27.90;1.00;;;;;;4974988;28;20429;-80
2022/08/07 11:12:05;;;;;;;0.60;0.60;;;27.90;1.00;;;;;;4989796;28;20433;-80
2022/08/07 11:14:59;;;;;;;2.30;0.80;;;27.90;1.00;;;;;;4970928;28;20477;-77
2022/08/07 11:17:50;;;;;;;1.30;0.63;;;27.90;1.00;;;;;;4980820;28;20431;-76
2022/08/07 11:20:23;;;;;;;0.90;0.70;;;28.10;1.00;;;;;;4992938;28;20925;-77
2022/08/07 11:23:25;;;;;;;2.53;0.70;;;28.00;1.00;;;;;;5001989;28;20418;-77
2022/08/07 11:26:42;;;;;;;1.50;1.00;;;28.10;1.00;;;;;;5034840;28;20946;-78
2022/08/07 11:29:31;;;;;;;0.70;0.60;;;28.00;1.00;;;;;;5025516;28;20431;-77
2022/08/07 11:32:13;;;;;;;2.93;0.80;;;28.00;1.00;;;;;;5009933;28;20891;-77
2022/08/07 11:34:51;;;;;;;1.07;0.60;;;28.00;1.00;;;;;;5027571;28;20455;-76
2022/08/07 11:37:22;;;;;;;0.80;0.70;;;28.10;1.00;;;;;;5034778;28;20428;-78
2022/08/07 11:40:31;;;;;;;2.13;0.80;;;28.10;1.00;;;;;;5022482;28;20471;-80
2022/08/07 11:43:12;;;;;;;3.70;0.80;;;28.20;1.00;;;;;;5033927;28;20400;-82
2022/08/07 11:46:08;;;;;;;1.43;0.67;;;28.30;1.00;;;;;;5034038;28;20772;-81
2022/08/07 11:49:29;;;;;;;0.77;0.70;;;28.40;1.00;;;;;;5019988;28;20427;-82
2022/08/07 11:52:07;;;;;;;0.60;0.60;;;28.50;1.00;;;;;;5032670;28;20844;-82
2022/08/07 11:55:05;;;;;;;4.83;0.67;;;28.60;1.00;;;;;;5025638;28;20461;-81
2022/08/07 11:58:11;;;;;;;3.47;0.70;;;28.60;1.00;;;;;;5030191;28;20820;-81
2022/08/07 12:01:08;;;;;;;1.00;0.70;;;28.70;1.00;;;;;;4969536;28;20463;-73
2022/08/07 12:04:01;;;;;;;1.90;0.80;;;28.70;1.00;;;;;;4962267;28;20430;-74
2022/08/07 12:07:11;;;;;;;1.37;0.67;;;28.90;1.00;;;;;;4982805;28;20443;-75
2022/08/07 12:09:55;;;;;;;5.57;0.70;;;28.80;1.00;;;;;;4955437;29;20461;-73
2022/08/07 12:12:35;;;;;;;1.20;0.60;;;28.90;1.00;;;;;;4954874;29;20851;-74
2022/08/07 12:15:32;;;;;;;0.90;0.70;;;29.10;1.00;;;;;;4941380;29;20848;-73
2022/08/07 12:18:14;;;;;;;0.80;0.70;;;29.10;1.00;;;;;;4934874;29;20528;-73
2022/08/07 12:21:17;;;;;;;0.70;0.60;;;29.10;1.00;;;;;;4935912;29;20611;-73
2022/08/07 12:24:05;;;;;;;3.10;0.73;;;29.10;1.00;;;;;;4935672;29;20423;-78
2022/08/07 12:27:03;;;;;;;1.77;0.60;;;29.20;1.00;;;;;;4936458;29;20422;-77
2022/08/07 12:29:39;;;;;;;0.60;0.50;;;29.20;1.00;;;;;;4935971;29;20423;-78
2022/08/07 12:32:27;;;;;;;0.87;0.60;;;29.10;1.00;;;;;;4936166;29;20414;-77
2022/08/07 12:35:10;;;;;;;0.73;0.60;;;29.20;1.00;;;;;;4935777;29;20482;-77
2022/08/07 12:37:55;;;;;;;1.80;0.70;;;29.20;1.00;;;;;;4945583;29;20438;-77
2022/08/07 12:40:28;;;;;;;1.07;0.60;;;29.30;1.00;;;;;;4954498;29;20539;-74
2022/08/07 12:43:02;;;;;;;0.90;0.77;;;29.30;1.00;;;;;;4955106;29;20419;-75
2022/08/07 12:45:37;;;;;;;1.10;0.70;;;29.50;1.00;;;;;;4961320;28;20828;-75
2022/08/07 12:48:18;;;;;;;0.80;0.60;;;29.50;1.00;;;;;;4976355;28;20441;-74
2022/08/07 12:50:55;;;;;;;3.33;0.60;;;29.50;1.00;;;;;;4980754;28;20433;-75
2022/08/07 12:53:56;;;;;;;0.60;0.60;;;29.60;1.00;;;;;;4979931;28;20428;-75
2022/08/07 12:56:33;;;;;;;0.70;0.67;;;29.60;1.00;;;;;;5019494;28;20765;-75
2022/08/07 12:59:03;;;;;;;1.70;0.70;;;29.80;1.00;;;;;;5031334;28;21003;-75
2022/08/07 13:02:04;;;;;;;1.97;0.50;;;29.70;1.00;;;;;;5025324;28;20415;-75
2022/08/07 13:04:32;;;;;;;5.70;0.87;;;29.60;1.00;;;;;;4989252;28;20467;-74
2022/08/07 13:07:21;;;;;;;2.90;0.60;;;29.70;1.00;;;;;;4985055;28;20488;-75
2022/08/07 13:10:09;;;;;;;1.27;0.60;;;29.70;1.00;;;;;;4991681;28;20439;-74
2022/08/07 13:13:13;;;;;;;6.00;1.10;;;29.90;1.00;;;;;;4992050;28;20419;-75
2022/08/07 13:16:12;;;;;;;0.70;0.60;;;30.00;1.00;;;;;;4979891;28;20475;-75
2022/08/07 13:18:54;;;;;;;1.27;0.70;;;30.10;1.00;;;;;;4981003;28;20428;-74
2022/08/07 13:21:41;;;;;;;3.17;0.60;;;30.10;1.00;;;;;;4992432;28;20411;-75
2022/08/07 13:24:19;;;;;;;0.73;0.50;;;30.20;1.00;;;;;;4991317;28;20759;-75
2022/08/07 13:27:13;;;;;;;3.00;0.77;;;30.30;1.00;;;;;;4988173;28;20424;-75
2022/08/07 13:30:08;;;;;;;2.57;0.60;;;30.50;1.00;;;;;;4984146;28;20443;-75
2022/08/07 13:33:21;;;;;;;0.93;0.80;;;30.50;1.00;;;;;;4987995;28;20444;-75
2022/08/07 13:35:55;;;;;;;1.00;0.60;;;30.50;1.00;;;;;;4948628;29;20484;-75
2022/08/07 13:38:50;;;;;;;1.07;0.60;;;30.50;1.00;;;;;;4953899;29;20510;-75
2022/08/07 13:42:05;;;;;;;0.70;0.60;;;30.50;1.00;;;;;;4943083;28;20429;-77
2022/08/07 13:44:35;;;;;;;0.60;0.60;;;30.60;1.00;;;;;;4924066;29;20475;-77
2022/08/07 13:47:30;;;;;;;0.80;0.70;;;30.70;1.00;;;;;;4934985;29;20481;-77
2022/08/07 13:50:01;;;;;;;0.87;0.60;;;30.70;1.00;;;;;;4934740;29;20423;-78
2022/08/07 13:52:31;;;;;;;0.90;0.60;;;30.80;1.00;;;;;;4934694;29;20434;-78
2022/08/07 13:55:07;;;;;;;1.33;0.60;;;30.80;1.00;;;;;;4934868;29;20599;-79
2022/08/07 13:57:39;;;;;;;1.47;0.60;;;30.90;1.00;;;;;;4947775;29;20429;-77
2022/08/07 14:00:14;;;;;;;0.83;0.50;;;31.00;1.00;;;;;;4934695;29;20518;-77
2022/08/07 14:02:50;;;;;;;0.70;0.50;;;31.10;1.00;;;;;;4934397;29;20431;-78
2022/08/07 14:05:21;;;;;;;0.60;0.50;;;31.00;1.00;;;;;;4934357;29;20530;-79
2022/08/07 14:07:50;;;;;;;1.07;0.50;;;30.90;1.00;;;;;;4947662;29;20486;-77
2022/08/07 14:10:36;;;;;;;0.90;0.60;;;30.70;1.00;;;;;;4931295;29;20471;-80
2022/08/07 14:13:05;;;;;;;0.70;0.60;;;30.60;1.00;;;;;;4952859;28;20468;-77